createdAt,value
2019-01-24T00:02:20.361Z,33.80
2019-01-24T00:04:53.270Z,36.87
2019-01-24T00:07:23.321Z,42.23
2019-01-24T00:09:53.198Z,43.70
2019-01-24T00:12:23.026Z,41.33
2019-01-24T00:14:52.919Z,43.37
2019-01-24T00:17:23.406Z,42.70
2019-01-24T00:19:53.280Z,37.30
2019-01-24T00:22:23.111Z,38.07
2019-01-24T00:24:52.955Z,41.73
2019-01-24T00:27:23.164Z,38.33
2019-01-24T00:29:55.729Z,40.70
2019-01-24T00:32:26.772Z,34.77
2019-01-24T00:34:57.249Z,46.20
2019-01-24T00:37:27.060Z,38.83
2019-01-24T00:39:57.051Z,44.50
2019-01-24T00:42:26.855Z,36.80
2019-01-24T00:44:56.947Z,41.90
2019-01-24T00:47:26.775Z,40.03
2019-01-24T00:49:56.561Z,33.07
2019-01-24T00:52:26.313Z,39.80
2019-01-24T00:54:58.989Z,41.93
2019-01-24T00:57:28.851Z,40.67
2019-01-24T00:59:59.136Z,37.83
2019-01-24T01:02:28.937Z,41.27
2019-01-24T01:04:58.878Z,32.63
2019-01-24T01:07:29.053Z,44.33
2019-01-24T01:09:58.917Z,43.40
2019-01-24T01:12:29.110Z,41.70
2019-01-24T01:14:59.269Z,35.07
2019-01-24T01:17:29.383Z,59.60
2019-01-24T01:19:59.211Z,50.90
2019-01-24T01:22:29.030Z,55.50
2019-01-24T01:24:58.970Z,41.80
2019-01-24T01:27:28.754Z,43.00
2019-01-24T01:29:58.652Z,38.83
2019-01-24T01:32:28.490Z,41.23
2019-01-24T01:34:59.404Z,32.87
2019-01-24T01:37:29.645Z,42.30
2019-01-24T01:39:59.487Z,39.27
2019-01-24T01:42:30.488Z,39.73
2019-01-24T01:45:02.126Z,37.97
2019-01-24T01:47:31.977Z,32.07
2019-01-24T01:50:01.774Z,40.03
2019-01-24T01:52:31.530Z,32.23
2019-01-24T01:55:01.557Z,39.57
2019-01-24T01:57:31.315Z,45.13
2019-01-24T02:00:01.939Z,40.33
2019-01-24T02:02:31.876Z,40.67
2019-01-24T02:05:01.716Z,39.50
2019-01-24T02:07:31.773Z,47.53
2019-01-24T02:10:01.469Z,38.17
2019-01-24T02:12:31.358Z,31.23
2019-01-24T02:15:01.670Z,47.43
2019-01-24T02:17:31.519Z,39.57
2019-01-24T02:20:01.307Z,38.43
2019-01-24T02:22:31.526Z,39.43
2019-01-24T02:25:01.367Z,42.40
2019-01-24T02:27:31.127Z,53.70
2019-01-24T02:30:00.966Z,39.37
2019-01-24T02:32:30.775Z,39.20
2019-01-24T02:35:00.572Z,42.03
2019-01-24T02:37:30.518Z,42.80
2019-01-24T02:40:00.505Z,38.10
2019-01-24T02:42:30.425Z,43.30
2019-01-24T02:45:00.309Z,36.60
2019-01-24T02:47:30.806Z,39.53
2019-01-24T02:50:00.675Z,33.97
2019-01-24T02:52:30.946Z,43.67
2019-01-24T02:55:01.985Z,43.57
2019-01-24T02:57:31.780Z,35.43
2019-01-24T03:00:01.621Z,47.50
2019-01-24T03:02:31.936Z,44.67
2019-01-24T03:05:01.806Z,40.03
2019-01-24T03:07:31.571Z,45.43
2019-01-24T03:10:01.422Z,44.73
2019-01-24T03:12:31.204Z,37.97
2019-01-24T03:15:01.059Z,51.43
2019-01-24T03:17:31.157Z,43.97
2019-01-24T03:20:00.768Z,39.07
2019-01-24T03:22:30.570Z,41.20
2019-01-24T03:25:00.740Z,45.33
2019-01-24T03:27:30.498Z,44.90
2019-01-24T03:30:00.344Z,63.07
2019-01-24T03:32:30.284Z,48.63
2019-01-24T03:35:04.092Z,40.43
2019-01-24T03:37:31.644Z,42.97
2019-01-24T03:40:02.886Z,37.03
2019-01-24T03:42:32.698Z,36.53
2019-01-24T03:45:02.493Z,39.63
2019-01-24T03:47:32.619Z,41.90
2019-01-24T03:50:02.375Z,54.37
2019-01-24T03:52:32.169Z,51.10
2019-01-24T03:55:02.415Z,42.13
2019-01-24T03:57:32.280Z,55.50
2019-01-24T04:00:02.060Z,49.67
2019-01-24T04:02:32.379Z,42.67
2019-01-24T04:05:02.142Z,41.23
2019-01-24T04:07:31.933Z,57.87
2019-01-24T04:10:01.739Z,56.90
2019-01-24T04:12:31.591Z,49.20
2019-01-24T04:15:01.414Z,47.83
2019-01-24T04:17:31.347Z,40.40
2019-01-24T04:20:01.537Z,48.67
2019-01-24T04:22:31.496Z,48.80
2019-01-24T04:25:01.443Z,44.67
2019-01-24T04:27:32.828Z,50.83
2019-01-24T04:30:02.659Z,45.73
2019-01-24T04:32:32.445Z,44.57
2019-01-24T04:35:02.683Z,44.07
2019-01-24T04:37:32.949Z,47.37
2019-01-24T04:40:03.111Z,45.87
2019-01-24T04:42:35.515Z,39.50
2019-01-24T04:45:06.918Z,68.30
2019-01-24T04:47:42.674Z,49.30
2019-01-24T04:50:18.508Z,39.80
2019-01-24T04:52:51.675Z,29.53
2019-01-24T04:55:26.070Z,38.83
2019-01-24T04:58:01.127Z,39.03
2019-01-24T05:00:42.198Z,37.27
2019-01-24T05:03:49.230Z,51.60
2019-01-24T05:06:06.636Z,39.60
2019-01-24T05:08:36.918Z,31.87
2019-01-24T05:11:06.977Z,35.97
2019-01-24T05:13:37.405Z,40.07
2019-01-24T05:16:07.672Z,44.83
2019-01-24T05:18:37.845Z,37.03
2019-01-24T05:21:07.680Z,45.73
2019-01-24T05:23:37.869Z,44.50
2019-01-24T05:26:07.916Z,42.17
2019-01-24T05:28:37.900Z,44.37
2019-01-24T05:31:08.186Z,70.97
2019-01-24T05:33:38.598Z,70.50
2019-01-24T05:36:08.412Z,58.00
2019-01-24T05:38:38.613Z,55.13
2019-01-24T05:41:08.384Z,51.90
2019-01-24T05:43:39.330Z,69.70
2019-01-24T05:46:13.751Z,57.40
2019-01-24T05:48:43.719Z,61.07
2019-01-24T05:51:13.478Z,50.47
2019-01-24T05:53:43.350Z,54.57
2019-01-24T05:56:13.637Z,53.67
2019-01-24T05:58:43.404Z,50.53
2019-01-24T06:01:14.120Z,56.00
2019-01-24T06:03:44.390Z,50.70
2019-01-24T06:06:19.983Z,46.97
2019-01-24T06:08:49.823Z,52.83
2019-01-24T06:11:23.402Z,78.23
2019-01-24T06:13:53.344Z,54.73
2019-01-24T06:16:24.208Z,52.43
2019-01-24T06:18:53.935Z,72.83
2019-01-24T06:21:24.563Z,72.60
2019-01-24T06:23:57.462Z,57.03
2019-01-24T06:26:27.419Z,68.67
2019-01-24T06:29:06.702Z,72.90
2019-01-24T06:31:36.517Z,87.57
2019-01-24T06:34:06.381Z,66.90
2019-01-24T06:36:36.274Z,57.20
2019-01-24T06:39:19.858Z,57.07
2019-01-24T06:41:50.046Z,60.03
2019-01-24T06:44:20.107Z,76.27
2019-01-24T06:46:53.416Z,72.80
2019-01-24T06:49:23.146Z,78.10
2019-01-24T06:51:55.701Z,87.77
2019-01-24T06:54:25.623Z,86.90
2019-01-24T06:56:58.327Z,81.37
2019-01-24T06:59:32.571Z,83.50
2019-01-24T07:02:02.731Z,75.93
2019-01-24T07:04:32.581Z,80.17
2019-01-24T07:07:02.458Z,93.73
2019-01-24T07:09:32.232Z,80.27
2019-01-24T07:12:12.337Z,82.00
2019-01-24T07:14:46.913Z,82.00
2019-01-24T07:17:17.064Z,79.00
2019-01-24T07:19:49.417Z,96.63
2019-01-24T07:22:19.292Z,71.93
2019-01-24T07:24:49.231Z,83.77
2019-01-24T07:27:19.551Z,67.90
2019-01-24T07:29:50.026Z,90.53
2019-01-24T07:32:21.473Z,69.97
2019-01-24T07:34:51.242Z,68.23
2019-01-24T07:37:21.668Z,80.37
2019-01-24T07:39:51.431Z,91.77
2019-01-24T07:42:21.822Z,90.30
2019-01-24T07:44:51.763Z,62.07
2019-01-24T07:47:21.834Z,75.57
2019-01-24T07:49:51.717Z,60.37
2019-01-24T07:52:21.569Z,65.53
2019-01-24T07:54:51.459Z,62.67
2019-01-24T07:57:21.303Z,56.67
2019-01-24T07:59:51.439Z,61.33
2019-01-24T08:02:21.561Z,72.50
2019-01-24T08:04:51.334Z,65.93
2019-01-24T08:07:21.187Z,86.33
2019-01-24T08:10:13.699Z,68.70
2019-01-24T08:12:43.587Z,56.47
2019-01-24T08:15:17.473Z,71.77
2019-01-24T08:17:47.613Z,81.83
2019-01-24T08:20:20.361Z,81.40
2019-01-24T08:22:50.628Z,71.27
2019-01-24T08:25:31.648Z,61.10
2019-01-24T08:28:02.876Z,87.97
2019-01-24T08:30:37.193Z,66.10
2019-01-24T08:33:07.133Z,59.17
2019-01-24T08:35:40.274Z,69.40
2019-01-24T08:38:10.367Z,66.47
2019-01-24T08:40:40.712Z,62.03
2019-01-24T08:43:10.480Z,56.80
2019-01-24T08:45:44.220Z,51.60
2019-01-24T08:48:14.541Z,65.30
2019-01-24T08:50:50.664Z,51.03
2019-01-24T08:53:20.470Z,49.90
2019-01-24T08:55:50.278Z,52.00
2019-01-24T08:58:22.071Z,61.37
2019-01-24T09:00:51.804Z,67.73
2019-01-24T09:03:21.614Z,53.27
2019-01-24T09:05:51.554Z,53.60
2019-01-24T09:08:21.596Z,55.47
2019-01-24T09:10:51.412Z,61.57
2019-01-24T09:13:21.448Z,68.90
2019-01-24T09:16:01.192Z,60.97
2019-01-24T09:18:31.162Z,65.40
2019-01-24T09:21:00.928Z,66.30
2019-01-24T09:23:32.527Z,53.73
2019-01-24T09:26:02.682Z,63.53
2019-01-24T09:28:32.506Z,61.77
2019-01-24T09:31:02.313Z,60.47
2019-01-24T09:33:35.521Z,71.97
2019-01-24T09:36:11.426Z,56.13
2019-01-24T09:38:41.331Z,43.67
2019-01-24T09:41:14.239Z,57.03
2019-01-24T09:43:44.396Z,54.87
2019-01-24T09:46:18.955Z,53.13
2019-01-24T09:48:50.557Z,55.83
2019-01-24T09:51:47.308Z,65.60
2019-01-24T09:54:17.262Z,49.17
2019-01-24T09:56:47.227Z,51.07
2019-01-24T09:59:19.897Z,54.53
2019-01-24T10:01:52.382Z,64.13
2019-01-24T10:04:22.455Z,52.20
2019-01-24T10:06:56.505Z,46.30
2019-01-24T10:09:26.366Z,43.50
2019-01-24T10:11:56.708Z,54.77
2019-01-24T10:14:30.456Z,60.90
2019-01-24T10:17:03.440Z,50.87
2019-01-24T10:19:39.546Z,56.40
2019-01-24T10:22:09.301Z,54.87
2019-01-24T10:24:39.568Z,51.83
2019-01-24T10:27:10.022Z,50.83
2019-01-24T10:29:45.215Z,53.47
2019-01-24T10:32:15.133Z,58.53
2019-01-24T10:34:46.656Z,51.70
2019-01-24T10:37:16.674Z,73.43
2019-01-24T10:39:46.627Z,65.03
2019-01-24T10:42:22.372Z,65.27
2019-01-24T10:44:52.495Z,53.20
2019-01-24T10:47:23.330Z,66.90
2019-01-24T10:49:55.981Z,52.57
2019-01-24T10:52:29.916Z,53.53
2019-01-24T10:54:59.810Z,44.77
2019-01-24T10:57:29.706Z,43.67
2019-01-24T10:59:59.526Z,56.83
2019-01-24T11:02:32.563Z,53.97
2019-01-24T11:05:02.477Z,51.53
2019-01-24T11:07:32.891Z,55.33
2019-01-24T11:10:02.751Z,51.40
2019-01-24T11:12:35.433Z,52.50
2019-01-24T11:15:07.709Z,60.03
2019-01-24T11:17:37.593Z,45.33
2019-01-24T11:20:09.221Z,49.77
2019-01-24T11:22:41.132Z,51.87
2019-01-24T11:25:33.516Z,52.33
2019-01-24T11:28:03.371Z,67.97
2019-01-24T11:30:33.587Z,47.27
2019-01-24T11:33:05.038Z,47.03
2019-01-24T11:35:43.281Z,50.63
2019-01-24T11:38:10.934Z,59.10
2019-01-24T11:40:41.512Z,52.50
2019-01-24T11:43:27.202Z,53.60
2019-01-24T11:45:59.330Z,45.20
2019-01-24T11:48:41.861Z,51.20
2019-01-24T11:51:17.950Z,51.67
2019-01-24T11:53:53.019Z,49.07
2019-01-24T11:56:20.407Z,43.50
2019-01-24T11:58:50.329Z,56.47
2019-01-24T12:01:23.300Z,59.97
2019-01-24T12:03:53.262Z,51.83
2019-01-24T12:06:23.443Z,48.23
2019-01-24T12:08:56.602Z,53.07
2019-01-24T12:11:30.751Z,51.33
2019-01-24T12:14:02.626Z,47.53
2019-01-24T12:16:32.509Z,74.90
2019-01-24T12:19:04.319Z,56.03
2019-01-24T12:21:58.124Z,50.73
2019-01-24T12:24:28.451Z,44.23
2019-01-24T12:26:58.342Z,50.13
2019-01-24T12:29:34.753Z,46.27
2019-01-24T12:32:04.885Z,52.10
2019-01-24T12:34:34.886Z,49.93
2019-01-24T12:37:11.587Z,52.17
2019-01-24T12:39:42.646Z,48.43
2019-01-24T12:42:22.872Z,53.73
2019-01-24T12:44:55.909Z,64.43
2019-01-24T12:47:28.927Z,51.73
2019-01-24T12:50:00.002Z,57.60
2019-01-24T12:52:33.820Z,49.20
2019-01-24T12:55:03.996Z,55.50
2019-01-24T12:57:33.794Z,57.50
2019-01-24T13:00:05.170Z,56.60
2019-01-24T13:02:36.010Z,51.63
2019-01-24T13:05:08.683Z,50.37
2019-01-24T13:07:40.320Z,52.47
2019-01-24T13:10:12.750Z,49.47
2019-01-24T13:12:45.990Z,46.30
2019-01-24T13:15:17.277Z,60.13
2019-01-24T13:17:50.401Z,57.53
2019-01-24T13:20:23.446Z,59.03
2019-01-24T13:22:56.603Z,63.77
2019-01-24T13:25:29.384Z,58.00
2019-01-24T13:27:59.279Z,58.57
2019-01-24T13:30:32.182Z,50.20
2019-01-24T13:33:02.450Z,56.83
2019-01-24T13:35:35.555Z,54.60
2019-01-24T13:38:07.046Z,56.50
2019-01-24T13:40:38.535Z,57.00
2019-01-24T13:43:22.969Z,60.10
2019-01-24T13:45:55.860Z,54.57
2019-01-24T13:48:25.971Z,53.43
2019-01-24T13:50:57.400Z,57.73
2019-01-24T13:53:30.968Z,57.23
2019-01-24T13:56:22.656Z,53.83
2019-01-24T13:58:52.644Z,55.07
2019-01-24T14:01:23.931Z,48.03
2019-01-24T14:04:10.404Z,61.90
2019-01-24T14:06:42.896Z,50.93
2019-01-24T14:09:13.091Z,59.37
2019-01-24T14:11:45.604Z,60.07
2019-01-24T14:14:21.538Z,56.90
2019-01-24T14:16:51.477Z,55.40
2019-01-24T14:19:24.771Z,56.93
2019-01-24T14:21:56.901Z,46.80
2019-01-24T14:24:29.681Z,60.10
2019-01-24T14:27:00.201Z,54.73
2019-01-24T14:29:32.284Z,51.17
2019-01-24T14:32:04.767Z,53.23
2019-01-24T14:34:41.913Z,60.00
2019-01-24T14:37:11.896Z,59.00
2019-01-24T14:39:59.433Z,59.00
2019-01-24T14:42:29.810Z,54.43
2019-01-24T14:45:06.324Z,59.43
2019-01-24T14:47:40.537Z,58.83
2019-01-24T14:50:14.816Z,54.00
2019-01-24T14:52:51.576Z,58.20
2019-01-24T14:55:22.057Z,56.00
2019-01-24T14:57:56.625Z,56.00
2019-01-24T15:00:28.925Z,58.67
2019-01-24T15:03:02.036Z,55.40
2019-01-24T15:05:41.977Z,62.00
2019-01-24T15:08:14.935Z,86.03
2019-01-24T15:10:45.361Z,58.57
2019-01-24T15:13:24.356Z,51.30
2019-01-24T15:15:54.755Z,47.83
2019-01-24T15:18:24.571Z,61.73
2019-01-24T15:20:54.955Z,63.43
2019-01-24T15:23:31.338Z,56.87
2019-01-24T15:26:10.733Z,46.07
2019-01-24T15:28:56.006Z,55.20
2019-01-24T15:31:26.971Z,48.63
2019-01-24T15:33:58.393Z,54.90
2019-01-24T15:36:37.287Z,56.67
2019-01-24T15:39:11.058Z,56.90
2019-01-24T15:41:45.973Z,62.23
2019-01-24T15:44:16.513Z,47.90
2019-01-24T15:46:50.125Z,46.03
2019-01-24T15:49:23.554Z,52.43
2019-01-24T15:51:56.954Z,48.83
2019-01-24T15:54:28.048Z,55.60
2019-01-24T15:57:17.120Z,61.27
2019-01-24T15:59:47.676Z,55.50
2019-01-24T16:02:21.900Z,54.33
2019-01-24T16:04:51.877Z,77.77
2019-01-24T16:07:22.688Z,62.70
2019-01-24T16:09:59.465Z,54.23
2019-01-24T16:12:30.471Z,78.53
2019-01-24T16:15:00.804Z,61.37
2019-01-24T16:17:35.330Z,54.47
2019-01-24T16:20:09.123Z,49.70
2019-01-24T16:22:39.165Z,61.43
2019-01-24T16:25:21.290Z,56.50
2019-01-24T16:27:51.409Z,56.77
2019-01-24T16:30:24.484Z,56.60
2019-01-24T16:33:00.888Z,56.37
2019-01-24T16:35:31.840Z,62.63
2019-01-24T16:38:09.321Z,56.73
2019-01-24T16:40:37.976Z,56.70
2019-01-24T16:43:08.756Z,54.97
2019-01-24T16:45:41.045Z,78.50
2019-01-24T16:48:11.235Z,60.63
2019-01-24T16:50:47.525Z,56.80
2019-01-24T16:53:17.671Z,58.70
2019-01-24T16:55:48.336Z,55.40
2019-01-24T16:58:18.632Z,68.20
2019-01-24T17:01:02.744Z,60.13
2019-01-24T17:03:33.565Z,66.03
2019-01-24T17:06:08.010Z,71.67
2019-01-24T17:08:41.138Z,63.53
2019-01-24T17:11:16.452Z,62.43
2019-01-24T17:13:46.620Z,65.43
2019-01-24T17:16:16.555Z,83.20
2019-01-24T17:18:49.640Z,62.13
2019-01-24T17:21:31.005Z,64.60
2019-01-24T17:24:05.047Z,54.43
2019-01-24T17:26:38.060Z,61.30
2019-01-24T17:29:09.440Z,56.30
2019-01-24T17:31:45.365Z,60.20
2019-01-24T17:34:15.823Z,71.33
2019-01-24T17:36:47.875Z,59.50
2019-01-24T17:39:25.305Z,55.57
2019-01-24T17:41:58.433Z,57.27
2019-01-24T17:44:28.971Z,63.33
2019-01-24T17:47:01.546Z,56.93
2019-01-24T17:49:31.876Z,63.43
2019-01-24T17:52:07.683Z,66.53
2019-01-24T17:54:37.696Z,66.37
2019-01-24T17:57:08.467Z,65.97
2019-01-24T17:59:45.936Z,61.53
2019-01-24T18:02:23.007Z,64.67
2019-01-24T18:04:52.960Z,62.63
2019-01-24T18:07:24.950Z,58.43
2019-01-24T18:10:00.583Z,60.93
2019-01-24T18:12:33.457Z,54.13
2019-01-24T18:15:13.135Z,61.40
2019-01-24T18:17:43.563Z,70.57
2019-01-24T18:20:23.121Z,63.50
2019-01-24T18:22:50.939Z,86.07
2019-01-24T18:25:21.324Z,87.20
2019-01-24T18:27:52.982Z,72.17
2019-01-24T18:30:32.435Z,86.47
2019-01-24T18:33:02.905Z,83.00
2019-01-24T18:35:33.061Z,80.63
2019-01-24T18:38:06.772Z,80.83
2019-01-24T18:40:38.599Z,90.00
2019-01-24T18:43:13.214Z,79.97
2019-01-24T18:45:49.324Z,75.03
2019-01-24T18:48:22.440Z,84.10
2019-01-24T18:50:55.361Z,69.07
2019-01-24T18:53:30.895Z,69.47
2019-01-24T18:56:07.953Z,57.27
2019-01-24T18:58:41.517Z,62.03
2019-01-24T19:01:16.474Z,68.83
2019-01-24T19:03:47.293Z,74.07
2019-01-24T19:06:20.104Z,68.13
2019-01-24T19:08:51.439Z,71.67
2019-01-24T19:11:22.831Z,93.23
2019-01-24T19:14:12.398Z,86.33
2019-01-24T19:16:40.129Z,85.77
2019-01-24T19:19:14.462Z,85.00
2019-01-24T19:24:34.170Z,84.73
2019-01-24T19:27:19.533Z,78.60
2019-01-24T19:30:01.969Z,85.60
2019-01-24T19:32:32.602Z,73.97
2019-01-24T19:35:32.307Z,82.40
2019-01-24T19:38:08.908Z,96.00
2019-01-24T19:40:42.609Z,78.30
2019-01-24T19:43:16.114Z,65.17
2019-01-24T19:45:47.239Z,84.57
2019-01-24T19:48:19.048Z,65.27
2019-01-24T19:50:52.170Z,91.13
2019-01-24T19:53:25.422Z,75.50
2019-01-24T19:56:13.434Z,56.20
2019-01-24T19:58:49.149Z,61.80
2019-01-24T20:01:30.341Z,75.20
2019-01-24T20:04:07.210Z,84.53
2019-01-24T20:06:49.254Z,82.40
2019-01-24T20:09:15.834Z,99.33
2019-01-24T20:11:52.027Z,80.70
2019-01-24T20:14:24.583Z,69.83
2019-01-24T20:17:06.880Z,67.07
2019-01-24T20:19:39.223Z,66.03
2019-01-24T20:22:11.826Z,82.37
2019-01-24T20:24:59.448Z,70.00
2019-01-24T20:27:38.841Z,95.13
2019-01-24T20:30:14.008Z,95.17
2019-01-24T20:32:48.911Z,78.40
2019-01-24T20:35:22.763Z,89.63
2019-01-24T20:38:09.974Z,88.67
2019-01-24T20:40:47.444Z,95.43
2019-01-24T20:43:36.754Z,79.33
2019-01-24T20:46:07.955Z,98.30
2019-01-24T20:48:50.449Z,83.83
2019-01-24T20:51:22.009Z,62.33
2019-01-24T20:53:52.849Z,66.07
2019-01-24T20:56:25.779Z,62.07
2019-01-24T20:58:59.556Z,57.07
2019-01-24T21:01:32.307Z,67.07
2019-01-24T21:04:09.084Z,86.93
2019-01-24T21:06:40.722Z,84.93
2019-01-24T21:09:14.851Z,76.97
2019-01-24T21:11:43.664Z,88.90
2019-01-24T21:14:14.279Z,74.43
2019-01-24T21:16:44.133Z,69.10
2019-01-24T21:19:31.091Z,69.73
2019-01-24T21:22:01.165Z,62.07
2019-01-24T21:24:31.439Z,58.80
2019-01-24T21:27:15.619Z,64.17
2019-01-24T21:29:45.667Z,83.53
2019-01-24T21:32:15.686Z,75.50
2019-01-24T21:34:48.652Z,60.33
2019-01-24T21:37:18.527Z,72.03
2019-01-24T21:39:48.650Z,75.13
2019-01-24T21:42:18.955Z,89.97
2019-01-24T21:44:53.901Z,106.07
2019-01-24T21:47:24.252Z,95.03
2019-01-24T21:49:57.578Z,62.60
2019-01-24T21:52:27.625Z,60.00
2019-01-24T21:54:57.497Z,63.80
2019-01-24T21:57:27.824Z,63.00
2019-01-24T21:59:57.688Z,72.27
2019-01-24T22:02:28.879Z,53.77
2019-01-24T22:05:02.424Z,56.67
2019-01-24T22:07:35.413Z,66.43
2019-01-24T22:10:08.357Z,77.27
2019-01-24T22:12:38.311Z,59.40
2019-01-24T22:15:11.228Z,52.53
2019-01-24T22:17:41.341Z,62.37
2019-01-24T22:20:15.923Z,60.90
2019-01-24T22:22:46.925Z,61.93
2019-01-24T22:25:29.551Z,82.87
2019-01-24T22:28:00.122Z,67.43
2019-01-24T22:30:36.123Z,67.17
2019-01-24T22:33:06.641Z,89.80
2019-01-24T22:35:36.438Z,65.20
2019-01-24T22:38:33.846Z,61.10
2019-01-24T22:41:04.930Z,69.70
2019-01-24T22:43:37.973Z,59.90
2019-01-24T22:46:08.075Z,66.27
2019-01-24T22:48:38.242Z,65.00
2019-01-24T22:51:11.226Z,74.90
2019-01-24T22:53:41.129Z,87.43
2019-01-24T22:56:11.398Z,81.70
2019-01-24T22:58:47.522Z,58.53
2019-01-24T23:02:09.116Z,71.97
2019-01-24T23:04:42.306Z,78.03
2019-01-24T23:07:12.211Z,68.90
2019-01-24T23:09:44.154Z,79.90
2019-01-24T23:12:17.420Z,59.40
2019-01-24T23:14:53.289Z,47.20
2019-01-24T23:17:23.206Z,53.10
2019-01-24T23:19:53.776Z,67.53
2019-01-24T23:22:24.027Z,50.70
2019-01-24T23:24:54.065Z,42.07
2019-01-24T23:27:24.375Z,43.33
2019-01-24T23:29:54.165Z,49.37
2019-01-24T23:32:24.726Z,50.23
2019-01-24T23:34:57.840Z,49.30
2019-01-24T23:37:27.737Z,45.83
2019-01-24T23:40:01.288Z,43.30
2019-01-24T23:42:37.351Z,52.50
2019-01-24T23:45:09.662Z,63.17
2019-01-24T23:47:39.515Z,55.70
2019-01-24T23:50:12.146Z,53.90
2019-01-24T23:52:42.101Z,49.53
2019-01-24T23:55:11.977Z,66.73
2019-01-24T23:57:41.844Z,53.10
